Lake Suzy, Florida
Current Conditions -  °F | °C
As of 5:53 PM on Tuesday 21 Oct 2014 (Local Time) from KPGD Reporting Station
Few Clouds Few Clouds  
Wind Chill: 80°   Ceiling: Unl
Heat Index: 84°   Visibility: 10mi
Dew Point: 72°   Wind: 6mph
Humidity: 76%   Direction: 230°SW
Pressure: 29.93"   Gusts: NA
Location:  27.0717°N, 81.9802°W
Report Text: KPGD 212153Z 23005KT 10SM FEW018 27/22 A2993 RMK AO2 SLP135 T02670222
Loading
Personal Weather Stations






























Interactive Weather Map
Tropical Storm Tracking
New forecast layout! Learn more

10-Day Weather Forecast

Advertisements
Track Severe Weather on mobile